createdAt,value
2018-07-25T00:01:48.810Z,9.60
2018-07-25T00:04:16.502Z,10.43
2018-07-25T00:06:44.208Z,9.80
2018-07-25T00:09:11.932Z,9.63
2018-07-25T00:11:39.716Z,9.40
2018-07-25T00:14:07.576Z,9.20
2018-07-25T00:16:35.806Z,9.27
2018-07-25T00:19:03.601Z,10.47
2018-07-25T00:21:31.350Z,10.73
2018-07-25T00:23:59.136Z,9.60
2018-07-25T00:26:26.943Z,9.90
2018-07-25T00:28:54.633Z,10.37
2018-07-25T00:31:22.364Z,9.50
2018-07-25T00:33:50.032Z,9.43
2018-07-25T00:36:17.745Z,9.37
2018-07-25T00:38:45.430Z,8.67
2018-07-25T00:41:13.113Z,9.43
2018-07-25T00:43:40.802Z,9.23
2018-07-25T00:46:08.693Z,9.20
2018-07-25T00:48:36.438Z,9.30
2018-07-25T00:51:04.138Z,10.20
2018-07-25T00:53:31.818Z,9.77
2018-07-25T00:55:59.505Z,10.43
2018-07-25T00:58:27.188Z,10.83
2018-07-25T01:00:54.894Z,11.03
2018-07-25T01:03:22.561Z,12.33
2018-07-25T01:05:50.231Z,14.07
2018-07-25T01:08:17.930Z,14.07
2018-07-25T01:10:45.645Z,12.77
2018-07-25T01:13:13.344Z,13.80
2018-07-25T01:15:41.465Z,12.43
2018-07-25T01:18:09.186Z,12.93
2018-07-25T01:20:36.860Z,12.40
2018-07-25T01:23:04.543Z,13.30
2018-07-25T01:25:32.234Z,13.83
2018-07-25T01:27:59.915Z,12.60
2018-07-25T01:30:27.673Z,12.57
2018-07-25T01:32:55.344Z,13.47
2018-07-25T01:35:23.031Z,12.90
2018-07-25T01:37:50.726Z,14.27
2018-07-25T01:40:18.400Z,15.23
2018-07-25T01:42:46.097Z,13.67
2018-07-25T01:45:13.815Z,13.37
2018-07-25T01:47:41.493Z,15.20
2018-07-25T01:50:09.215Z,14.67
2018-07-25T01:52:37.076Z,16.27
2018-07-25T01:55:06.085Z,19.07
2018-07-25T01:57:33.820Z,16.20
2018-07-25T02:00:01.529Z,17.40
2018-07-25T02:02:29.201Z,16.10
2018-07-25T02:04:56.873Z,17.03
2018-07-25T02:07:24.606Z,15.20
2018-07-25T02:09:52.560Z,15.00
2018-07-25T02:12:20.265Z,13.80
2018-07-25T02:14:47.982Z,12.97
2018-07-25T02:17:15.744Z,13.93
2018-07-25T02:19:43.438Z,16.73
2018-07-25T02:22:11.120Z,19.10
2018-07-25T02:24:38.800Z,20.70
2018-07-25T02:27:06.627Z,19.40
2018-07-25T02:29:34.332Z,18.23
2018-07-25T02:32:02.414Z,20.13
2018-07-25T02:34:30.080Z,18.60
2018-07-25T02:36:57.771Z,19.17
2018-07-25T02:39:25.468Z,19.43
2018-07-25T02:41:53.141Z,18.37
2018-07-25T02:44:20.904Z,17.57
2018-07-25T02:46:48.601Z,17.63
2018-07-25T02:49:16.292Z,16.27
2018-07-25T02:51:44.009Z,17.27
2018-07-25T02:54:11.700Z,17.80
2018-07-25T02:56:39.421Z,16.90
2018-07-25T02:59:07.125Z,15.90
2018-07-25T03:01:34.814Z,16.63
2018-07-25T03:04:02.545Z,18.10
2018-07-25T03:06:30.302Z,18.30
2018-07-25T03:08:58.049Z,17.50
2018-07-25T03:11:25.866Z,16.93
2018-07-25T03:13:53.556Z,16.87
2018-07-25T03:16:21.316Z,16.13
2018-07-25T03:18:49.013Z,15.97
2018-07-25T03:21:16.726Z,13.53
2018-07-25T03:23:44.414Z,14.90
2018-07-25T03:26:12.133Z,15.00
2018-07-25T03:28:39.799Z,18.43
2018-07-25T03:31:07.512Z,17.03
2018-07-25T03:33:35.218Z,16.53
2018-07-25T03:36:02.968Z,16.20
2018-07-25T03:38:30.712Z,14.27
2018-07-25T03:40:58.472Z,14.20
2018-07-25T03:43:26.206Z,14.73
2018-07-25T03:45:53.984Z,15.27
2018-07-25T03:48:21.681Z,14.60
2018-07-25T03:50:49.361Z,13.00
2018-07-25T03:53:17.097Z,13.67
2018-07-25T03:55:44.786Z,14.00
2018-07-25T03:58:12.478Z,14.00
2018-07-25T04:00:40.169Z,14.27
2018-07-25T04:03:07.941Z,14.07
2018-07-25T04:05:35.656Z,14.33
2018-07-25T04:08:03.434Z,13.33
2018-07-25T04:10:31.191Z,14.03
2018-07-25T04:12:58.902Z,14.33
2018-07-25T04:15:26.721Z,13.03
2018-07-25T04:17:54.593Z,14.47
2018-07-25T04:20:22.317Z,14.53
2018-07-25T04:22:50.061Z,16.43
2018-07-25T04:25:17.750Z,14.83
2018-07-25T04:27:46.250Z,14.63
2018-07-25T04:30:15.978Z,16.33
2018-07-25T04:32:44.258Z,16.93
2018-07-25T04:35:13.038Z,16.40
2018-07-25T04:37:41.186Z,15.23
2018-07-25T04:40:08.990Z,15.70
2018-07-25T04:42:36.902Z,14.17
2018-07-25T04:45:05.505Z,15.50
2018-07-25T04:47:33.222Z,13.73
2018-07-25T04:50:00.997Z,14.30
2018-07-25T04:52:28.737Z,14.13
2018-07-25T04:54:56.476Z,14.60
2018-07-25T04:57:24.206Z,14.93
2018-07-25T04:59:51.967Z,15.57
2018-07-25T05:02:19.685Z,14.97
2018-07-25T05:04:47.387Z,14.13
2018-07-25T05:07:15.098Z,15.43
2018-07-25T05:09:42.983Z,13.73
2018-07-25T05:12:10.731Z,15.20
2018-07-25T05:14:38.448Z,18.27
2018-07-25T05:17:06.226Z,19.53
2018-07-25T05:19:33.933Z,20.47
2018-07-25T05:22:01.639Z,24.20
2018-07-25T05:24:29.361Z,27.20
2018-07-25T05:26:57.072Z,29.30
2018-07-25T05:29:24.976Z,29.73
2018-07-25T05:31:52.689Z,31.40
2018-07-25T05:34:20.447Z,26.63
2018-07-25T05:36:48.162Z,27.10
2018-07-25T05:39:15.872Z,27.37
2018-07-25T05:41:43.544Z,27.37
2018-07-25T05:44:11.243Z,26.50
2018-07-25T05:46:39.235Z,29.27
2018-07-25T05:49:06.996Z,28.80
2018-07-25T05:51:35.783Z,29.87
2018-07-25T05:54:03.647Z,29.33
2018-07-25T05:56:31.527Z,28.73
2018-07-25T05:58:59.765Z,26.07
2018-07-25T06:01:27.659Z,24.20
2018-07-25T06:03:55.449Z,25.63
2018-07-25T06:06:23.285Z,26.43
2018-07-25T06:08:51.180Z,25.67
2018-07-25T06:11:18.945Z,25.47
2018-07-25T06:13:46.644Z,24.43
2018-07-25T06:16:14.350Z,23.53
2018-07-25T06:18:42.172Z,22.57
2018-07-25T06:21:09.934Z,23.37
2018-07-25T06:23:37.736Z,26.47
2018-07-25T06:26:05.664Z,26.63
2018-07-25T06:28:33.367Z,22.93
2018-07-25T06:31:01.131Z,25.23
2018-07-25T06:33:28.843Z,27.10
2018-07-25T06:35:56.528Z,21.70
2018-07-25T06:38:24.232Z,20.33
2018-07-25T06:40:51.926Z,26.83
2018-07-25T06:43:19.676Z,23.37
2018-07-25T06:45:47.357Z,21.50
2018-07-25T06:48:15.359Z,21.80
2018-07-25T06:50:43.115Z,24.30
2018-07-25T06:53:10.816Z,24.03
2018-07-25T06:55:38.517Z,21.53
2018-07-25T06:58:06.224Z,21.77
2018-07-25T07:00:33.921Z,23.37
2018-07-25T07:03:01.616Z,23.87
2018-07-25T07:05:29.365Z,22.03
2018-07-25T07:07:57.061Z,21.73
2018-07-25T07:10:24.782Z,19.47
2018-07-25T07:12:52.534Z,21.40
2018-07-25T07:15:20.279Z,20.97
2018-07-25T07:17:48.078Z,21.17
2018-07-25T07:20:15.811Z,20.83
2018-07-25T07:22:43.547Z,20.57
2018-07-25T07:25:11.291Z,19.07
2018-07-25T07:27:39.044Z,19.10
2018-07-25T07:30:07.142Z,21.30
2018-07-25T07:32:35.017Z,20.13
2018-07-25T07:35:02.967Z,18.47
2018-07-25T07:37:30.998Z,18.60
2018-07-25T07:39:58.660Z,18.67
2018-07-25T07:42:26.369Z,17.17
2018-07-25T07:44:54.165Z,16.63
2018-07-25T07:47:22.042Z,15.77
2018-07-25T07:49:49.728Z,16.10
2018-07-25T07:52:17.522Z,15.40
2018-07-25T07:54:45.426Z,15.73
2018-07-25T07:57:13.144Z,15.30
2018-07-25T07:59:40.872Z,14.33
2018-07-25T08:02:08.655Z,14.97
2018-07-25T08:04:36.439Z,14.23
2018-07-25T08:07:04.187Z,13.60
2018-07-25T08:09:31.903Z,13.60
2018-07-25T08:11:59.634Z,14.53
2018-07-25T08:14:27.365Z,13.47
2018-07-25T08:16:55.059Z,13.27
2018-07-25T08:19:22.774Z,13.33
2018-07-25T08:21:50.492Z,13.83
2018-07-25T08:24:18.196Z,13.60
2018-07-25T08:26:45.938Z,14.43
2018-07-25T08:29:13.676Z,12.47
2018-07-25T08:31:41.343Z,11.73
2018-07-25T08:34:09.048Z,11.87
2018-07-25T08:36:36.739Z,11.60
2018-07-25T08:39:07.521Z,10.80
2018-07-25T08:41:35.302Z,10.30
2018-07-25T08:44:03.694Z,10.13
2018-07-25T08:46:31.402Z,8.73
2018-07-25T08:48:59.162Z,9.07
2018-07-25T08:51:26.867Z,8.63
2018-07-25T08:53:54.579Z,8.80
2018-07-25T08:56:22.299Z,8.70
2018-07-25T08:58:50.022Z,8.47
2018-07-25T09:01:17.778Z,9.10
2018-07-25T09:03:45.505Z,8.23
2018-07-25T09:06:13.429Z,9.07
2018-07-25T09:08:41.151Z,7.43
2018-07-25T09:11:08.863Z,8.30
2018-07-25T09:13:36.658Z,7.50
2018-07-25T09:16:04.437Z,6.87
2018-07-25T09:18:32.240Z,6.33
2018-07-25T09:21:00.035Z,6.47
2018-07-25T09:23:27.769Z,6.40
2018-07-25T09:25:55.495Z,5.93
2018-07-25T09:28:23.202Z,5.40
2018-07-25T09:30:50.998Z,5.53
2018-07-25T09:33:18.772Z,5.83
2018-07-25T09:35:46.718Z,5.40
2018-07-25T09:38:14.470Z,5.40
2018-07-25T09:40:42.226Z,5.17
2018-07-25T09:43:10.020Z,5.00
2018-07-25T09:45:37.842Z,4.90
2018-07-25T09:48:05.614Z,5.10
2018-07-25T09:50:33.366Z,5.00
2018-07-25T09:53:01.186Z,4.57
2018-07-25T09:55:28.940Z,5.13
2018-07-25T09:57:56.702Z,5.53
2018-07-25T10:00:29.924Z,4.50
2018-07-25T10:02:57.665Z,4.73
2018-07-25T10:05:25.448Z,4.67
2018-07-25T10:07:53.256Z,4.63
2018-07-25T10:10:21.016Z,4.23
2018-07-25T10:12:48.762Z,4.13
2018-07-25T10:15:16.613Z,3.83
2018-07-25T10:17:44.306Z,4.03
2018-07-25T10:20:12.146Z,4.07
2018-07-25T10:22:39.944Z,4.50
2018-07-25T10:25:07.727Z,4.53
2018-07-25T10:27:35.522Z,4.47
2018-07-25T10:30:03.425Z,4.03
2018-07-25T10:32:31.218Z,4.13
2018-07-25T10:34:58.974Z,4.80
2018-07-25T10:37:26.744Z,3.93
2018-07-25T10:39:54.558Z,4.47
2018-07-25T10:42:22.320Z,4.53
2018-07-25T10:44:50.046Z,4.83
2018-07-25T10:47:17.822Z,4.13
2018-07-25T10:49:45.604Z,3.83
2018-07-25T10:52:13.449Z,4.00
2018-07-25T10:54:41.190Z,4.20
2018-07-25T10:57:08.970Z,4.30
2018-07-25T10:59:36.741Z,4.30
2018-07-25T11:02:04.551Z,3.80
2018-07-25T11:04:32.341Z,3.53
2018-07-25T11:07:00.130Z,4.07
2018-07-25T11:09:27.857Z,3.70
2018-07-25T11:11:55.605Z,3.67
2018-07-25T11:14:23.375Z,4.00
2018-07-25T11:16:51.155Z,3.73
2018-07-25T11:19:18.928Z,3.70
2018-07-25T11:21:46.727Z,3.63
2018-07-25T11:24:14.482Z,3.83
2018-07-25T11:26:42.428Z,3.60
2018-07-25T11:29:10.223Z,4.13
2018-07-25T11:31:37.972Z,4.37
2018-07-25T11:34:05.746Z,3.63
2018-07-25T11:36:33.505Z,3.47
2018-07-25T11:39:01.344Z,3.60
2018-07-25T11:41:29.081Z,3.43
2018-07-25T11:43:56.883Z,3.50
2018-07-25T11:46:24.602Z,3.43
2018-07-25T11:48:52.341Z,3.07
2018-07-25T11:51:20.099Z,3.10
2018-07-25T11:53:47.875Z,3.93
2018-07-25T11:56:15.654Z,3.70
2018-07-25T11:58:43.330Z,3.73
2018-07-25T12:01:11.115Z,3.60
2018-07-25T12:03:38.794Z,3.70
2018-07-25T12:06:06.662Z,3.13
2018-07-25T12:08:34.414Z,3.77
2018-07-25T12:11:02.217Z,3.03
2018-07-25T12:13:30.021Z,3.63
2018-07-25T12:15:57.849Z,3.77
2018-07-25T12:18:25.574Z,3.70
2018-07-25T12:20:53.334Z,3.47
2018-07-25T12:23:24.044Z,2.93
2018-07-25T12:25:51.798Z,3.40
2018-07-25T12:28:20.196Z,3.30
2018-07-25T12:30:47.993Z,3.00
2018-07-25T12:33:16.122Z,3.37
2018-07-25T12:35:43.874Z,2.90
2018-07-25T12:38:11.628Z,3.33
2018-07-25T12:40:39.393Z,3.43
2018-07-25T12:43:07.199Z,3.40
2018-07-25T12:45:35.162Z,3.20
2018-07-25T12:48:02.973Z,2.83
2018-07-25T12:50:30.942Z,3.13
2018-07-25T12:52:58.826Z,3.13
2018-07-25T12:55:26.946Z,3.70
2018-07-25T12:57:54.835Z,2.47
2018-07-25T13:00:22.711Z,3.23
2018-07-25T13:02:50.579Z,3.37
2018-07-25T13:05:18.511Z,3.40
2018-07-25T13:07:46.567Z,3.30
2018-07-25T13:10:14.375Z,3.17
2018-07-25T13:12:42.524Z,3.50
2018-07-25T13:15:10.608Z,3.23
2018-07-25T13:17:38.468Z,3.63
2018-07-25T13:20:06.502Z,3.00
2018-07-25T13:22:34.367Z,3.33
2018-07-25T13:25:02.116Z,3.73
2018-07-25T13:27:29.962Z,2.83
2018-07-25T13:29:57.977Z,3.00
2018-07-25T13:32:25.787Z,3.00
2018-07-25T13:34:53.577Z,3.40
2018-07-25T13:37:21.425Z,3.37
2018-07-25T13:39:49.272Z,3.00
2018-07-25T13:42:17.238Z,3.53
2018-07-25T13:44:45.392Z,3.20
2018-07-25T13:47:13.201Z,3.30
2018-07-25T13:49:41.604Z,3.17
2018-07-25T13:52:09.558Z,3.03
2018-07-25T13:54:37.436Z,3.10
2018-07-25T13:57:05.359Z,3.53
2018-07-25T13:59:33.526Z,2.60
2018-07-25T14:02:01.346Z,4.13
2018-07-25T14:04:29.224Z,3.70
2018-07-25T14:06:57.059Z,3.20
2018-07-25T14:09:24.984Z,3.03
2018-07-25T14:11:53.916Z,3.70
2018-07-25T14:14:21.837Z,3.37
2018-07-25T14:16:49.698Z,4.30
2018-07-25T14:19:18.110Z,4.60
2018-07-25T14:21:46.227Z,3.37
2018-07-25T14:24:14.061Z,3.20
2018-07-25T14:26:41.947Z,3.90
2018-07-25T14:29:10.301Z,2.90
2018-07-25T14:31:38.392Z,3.20
2018-07-25T14:34:06.235Z,2.23
2018-07-25T14:36:34.314Z,3.07
2018-07-25T14:39:02.203Z,4.00
2018-07-25T14:41:30.271Z,3.43
2018-07-25T14:43:58.173Z,2.73
2018-07-25T14:46:25.971Z,3.37
2018-07-25T14:48:53.765Z,3.73
2018-07-25T14:51:21.757Z,2.67
2018-07-25T14:53:49.519Z,3.77
2018-07-25T14:56:17.665Z,4.33
2018-07-25T14:58:45.514Z,5.13
2018-07-25T15:01:13.375Z,4.87
2018-07-25T15:03:41.174Z,4.50
2018-07-25T15:06:08.998Z,4.50
2018-07-25T15:08:37.094Z,4.17
2018-07-25T15:11:04.907Z,3.87
2018-07-25T15:13:33.071Z,4.00
2018-07-25T15:16:01.012Z,3.73
2018-07-25T15:18:28.870Z,3.97
2018-07-25T15:20:56.649Z,5.10
2018-07-25T15:23:35.591Z,5.10
2018-07-25T15:26:03.723Z,5.13
2018-07-25T15:28:31.725Z,4.27
2018-07-25T15:30:59.654Z,4.83
2018-07-25T15:33:27.703Z,5.03
2018-07-25T15:35:55.545Z,4.43
2018-07-25T15:38:23.355Z,4.53
2018-07-25T15:40:51.199Z,4.77
2018-07-25T15:43:18.957Z,4.43
2018-07-25T15:45:47.001Z,3.87
2018-07-25T15:48:14.794Z,4.37
2018-07-25T15:50:42.519Z,4.37
2018-07-25T15:53:10.328Z,3.60
2018-07-25T15:55:38.147Z,4.37
2018-07-25T15:58:06.078Z,4.57
2018-07-25T16:00:33.949Z,4.20
2018-07-25T16:03:02.082Z,4.30
2018-07-25T16:05:29.870Z,4.60
2018-07-25T16:07:57.629Z,4.07
2018-07-25T16:10:25.565Z,4.07
2018-07-25T16:12:53.479Z,4.63
2018-07-25T16:15:21.369Z,4.87
2018-07-25T16:17:49.157Z,4.90
2018-07-25T16:20:17.184Z,4.83
2018-07-25T16:22:45.105Z,3.63
2018-07-25T16:25:12.894Z,4.40
2018-07-25T16:27:40.682Z,5.43
2018-07-25T16:30:08.564Z,4.53
2018-07-25T16:32:36.387Z,4.70
2018-07-25T16:35:04.693Z,5.17
2018-07-25T16:37:32.489Z,4.87
2018-07-25T16:40:00.262Z,4.10
2018-07-25T16:42:28.080Z,3.83
2018-07-25T16:44:55.875Z,3.50
2018-07-25T16:47:23.869Z,3.63
2018-07-25T16:49:51.917Z,4.03
2018-07-25T16:52:19.888Z,4.20
2018-07-25T16:54:48.163Z,4.17
2018-07-25T16:57:16.299Z,4.20
2018-07-25T16:59:44.101Z,4.07
2018-07-25T17:02:12.268Z,3.93
2018-07-25T17:04:40.271Z,4.13
2018-07-25T17:07:08.184Z,4.17
2018-07-25T17:09:36.015Z,3.80
2018-07-25T17:12:03.872Z,3.60
2018-07-25T17:14:31.697Z,4.20
2018-07-25T17:16:59.506Z,3.70
2018-07-25T17:19:27.714Z,4.00
2018-07-25T17:21:55.539Z,4.03
2018-07-25T17:24:23.344Z,4.03
2018-07-25T17:26:51.138Z,3.97
2018-07-25T17:29:18.952Z,3.67
2018-07-25T17:31:46.750Z,4.40
2018-07-25T17:34:14.534Z,4.13
2018-07-25T17:36:42.357Z,4.57
2018-07-25T17:39:11.137Z,3.77
2018-07-25T17:41:39.567Z,4.10
2018-07-25T17:44:07.350Z,4.43
2018-07-25T17:46:35.244Z,4.03
2018-07-25T17:49:03.039Z,4.00
2018-07-25T17:51:31.074Z,4.80
2018-07-25T17:53:58.849Z,4.67
2018-07-25T17:56:26.668Z,4.80
2018-07-25T17:58:54.621Z,5.13
2018-07-25T18:01:22.389Z,4.77
2018-07-25T18:03:50.415Z,4.77
2018-07-25T18:06:18.197Z,5.40
2018-07-25T18:08:46.413Z,4.77
2018-07-25T18:11:14.289Z,4.77
2018-07-25T18:13:47.547Z,4.63
2018-07-25T18:16:15.295Z,4.70
2018-07-25T18:18:43.014Z,4.80
2018-07-25T18:21:11.412Z,4.33
2018-07-25T18:23:39.769Z,4.80
2018-07-25T18:26:08.306Z,4.63
2018-07-25T18:28:36.157Z,5.00
2018-07-25T18:31:04.130Z,4.53
2018-07-25T18:33:32.397Z,5.00
2018-07-25T18:36:00.755Z,4.30
2018-07-25T18:38:28.620Z,5.13
2018-07-25T18:40:56.541Z,4.67
2018-07-25T18:43:24.633Z,4.90
2018-07-25T18:45:53.007Z,5.10
2018-07-25T18:48:20.825Z,4.90
2018-07-25T18:50:49.010Z,5.33
2018-07-25T18:53:17.152Z,4.93
2018-07-25T18:55:44.950Z,4.93
2018-07-25T18:58:13.011Z,5.03
2018-07-25T19:00:43.837Z,4.70
2018-07-25T19:03:11.682Z,5.10
2018-07-25T19:05:39.483Z,5.07
2018-07-25T19:08:07.207Z,4.40
2018-07-25T19:10:34.935Z,4.80
2018-07-25T19:13:05.511Z,4.87
2018-07-25T19:15:33.373Z,5.10
2018-07-25T19:18:01.683Z,4.63
2018-07-25T19:20:29.456Z,5.60
2018-07-25T19:22:57.239Z,4.90
2018-07-25T19:25:25.000Z,4.83
2018-07-25T19:27:52.818Z,4.70
2018-07-25T19:30:20.591Z,5.20
2018-07-25T19:32:48.725Z,4.73
2018-07-25T19:35:16.497Z,6.03
2018-07-25T19:37:44.253Z,5.30
2018-07-25T19:40:11.978Z,6.07
2018-07-25T19:42:39.693Z,5.60
2018-07-25T19:45:07.428Z,5.97
2018-07-25T19:47:35.178Z,6.13
2018-07-25T19:50:02.954Z,5.67
2018-07-25T19:52:30.649Z,5.90
2018-07-25T19:54:58.360Z,6.17
2018-07-25T19:57:26.082Z,5.80
2018-07-25T19:59:53.777Z,6.50
2018-07-25T20:02:21.482Z,5.70
2018-07-25T20:04:49.250Z,5.17
2018-07-25T20:07:17.955Z,5.57
2018-07-25T20:09:45.706Z,5.57
2018-07-25T20:12:13.456Z,5.83
2018-07-25T20:14:46.613Z,5.80
2018-07-25T20:17:15.109Z,6.10
2018-07-25T20:19:42.814Z,5.20
2018-07-25T20:22:10.602Z,4.67
2018-07-25T20:24:38.308Z,5.27
2018-07-25T20:27:06.137Z,5.80
2018-07-25T20:29:33.946Z,5.80
2018-07-25T20:32:01.729Z,5.03
2018-07-25T20:34:29.472Z,5.07
2018-07-25T20:36:57.251Z,6.10
2018-07-25T20:39:25.021Z,5.20
2018-07-25T20:41:52.805Z,5.73
2018-07-25T20:44:20.906Z,5.57
2018-07-25T20:46:48.717Z,5.60
2018-07-25T20:49:17.930Z,5.83
2018-07-25T20:51:45.709Z,4.87
2018-07-25T20:54:13.511Z,5.43
2018-07-25T20:59:03.357Z,5.20
2018-07-25T21:01:31.037Z,5.17
2018-07-25T21:03:58.710Z,6.07
2018-07-25T21:06:26.374Z,5.83
2018-07-25T21:08:54.084Z,5.87
2018-07-25T21:11:22.060Z,6.43
2018-07-25T21:13:49.770Z,6.23
2018-07-25T21:16:17.581Z,5.40
2018-07-25T21:18:45.265Z,6.47
2018-07-25T21:21:12.991Z,5.87
2018-07-25T21:23:40.655Z,5.87
2018-07-25T21:26:08.317Z,6.27
2018-07-25T21:28:35.982Z,6.17
2018-07-25T21:31:03.836Z,6.17
2018-07-25T21:33:31.520Z,6.50
2018-07-25T21:35:59.294Z,6.33
2018-07-25T21:38:27.026Z,6.97
2018-07-25T21:40:54.692Z,6.27
2018-07-25T21:43:22.344Z,6.87
2018-07-25T21:45:50.109Z,6.97
2018-07-25T21:48:17.929Z,6.73
2018-07-25T21:50:45.589Z,6.50
2018-07-25T21:53:13.450Z,6.77
2018-07-25T21:55:41.109Z,6.90
2018-07-25T21:58:08.784Z,7.13
2018-07-25T22:00:36.606Z,6.27
2018-07-25T22:03:04.271Z,5.97
2018-07-25T22:05:31.945Z,6.53
2018-07-25T22:07:59.629Z,6.00
2018-07-25T22:10:27.345Z,8.20
2018-07-25T22:12:55.501Z,7.10
2018-07-25T22:15:23.352Z,6.90
2018-07-25T22:17:51.043Z,6.73
2018-07-25T22:20:18.725Z,6.70
2018-07-25T22:22:46.396Z,6.33
2018-07-25T22:25:14.053Z,6.83
2018-07-25T22:27:41.768Z,6.50
2018-07-25T22:30:09.459Z,6.67
2018-07-25T22:32:37.137Z,6.53
2018-07-25T22:35:04.826Z,6.13
2018-07-25T22:37:32.496Z,7.77
2018-07-25T22:40:00.144Z,6.50
2018-07-25T22:42:27.821Z,6.47
2018-07-25T22:44:55.498Z,6.53
2018-07-25T22:47:23.163Z,7.47
2018-07-25T22:49:50.894Z,6.33
2018-07-25T22:52:18.599Z,7.43
2018-07-25T22:54:46.461Z,6.93
2018-07-25T22:57:14.113Z,7.07
2018-07-25T22:59:41.835Z,7.10
2018-07-25T23:02:09.505Z,7.40
2018-07-25T23:04:37.169Z,6.83
2018-07-25T23:07:05.316Z,7.33
2018-07-25T23:09:32.973Z,7.07
2018-07-25T23:12:00.659Z,7.73
2018-07-25T23:14:28.338Z,7.70
2018-07-25T23:16:56.017Z,7.90
2018-07-25T23:19:23.693Z,7.40
2018-07-25T23:21:51.396Z,7.13
2018-07-25T23:24:19.088Z,7.50
2018-07-25T23:26:46.752Z,6.70
2018-07-25T23:29:14.435Z,6.80
2018-07-25T23:31:42.078Z,6.73
2018-07-25T23:34:09.733Z,7.00
2018-07-25T23:36:37.459Z,6.63
2018-07-25T23:39:06.922Z,6.53
2018-07-25T23:41:34.605Z,6.10
2018-07-25T23:44:02.325Z,5.40
2018-07-25T23:46:30.009Z,6.00
2018-07-25T23:48:57.689Z,5.23
2018-07-25T23:51:25.421Z,5.57
2018-07-25T23:53:53.081Z,5.53
2018-07-25T23:56:20.797Z,5.30
2018-07-25T23:58:48.477Z,4.40
